sensor_id;sensor_type;location;lat;lon;timestamp;pressure;altitude;pressure_sealevel;temperature;humidity
5296;BME280;2670;42.720;23.336;2023-04-28T00:01:14;-22616.53;;;6.00;76.75
5296;BME280;2670;42.720;23.336;2023-04-28T00:03:40;-22619.66;;;6.11;75.92
5296;BME280;2670;42.720;23.336;2023-04-28T00:06:08;-22623.06;;;6.22;75.71
5296;BME280;2670;42.720;23.336;2023-04-28T00:08:35;-22620.53;;;6.14;75.43
5296;BME280;2670;42.720;23.336;2023-04-28T00:11:02;-22622.03;;;6.19;75.99
5296;BME280;2670;42.720;23.336;2023-04-28T00:13:30;-22619.06;;;6.09;76.22
5296;BME280;2670;42.720;23.336;2023-04-28T00:15:57;-22618.16;;;6.06;76.74
5296;BME280;2670;42.720;23.336;2023-04-28T00:18:24;-22621.28;;;6.16;77.02
5296;BME280;2670;42.720;23.336;2023-04-28T00:20:51;-22619.66;;;6.11;75.75
5296;BME280;2670;42.720;23.336;2023-04-28T00:23:18;-22615.47;;;5.96;76.26
5296;BME280;2670;42.720;23.336;2023-04-28T00:25:49;-22610.84;;;5.81;76.14
5296;BME280;2670;42.720;23.336;2023-04-28T00:28:16;-22610.72;;;5.80;76.42
5296;BME280;2670;42.720;23.336;2023-04-28T00:30:44;-22611.44;;;5.83;76.79
5296;BME280;2670;42.720;23.336;2023-04-28T00:33:11;-22610.41;;;5.79;76.93
5296;BME280;2670;42.720;23.336;2023-04-28T00:35:38;-22611.91;;;5.84;76.21
5296;BME280;2670;42.720;23.336;2023-04-28T00:38:05;-22612.19;;;5.85;77.24
5296;BME280;2670;42.720;23.336;2023-04-28T00:40:32;-22613.97;;;5.91;76.80
5296;BME280;2670;42.720;23.336;2023-04-28T00:42:59;-22608.31;;;5.72;77.09
5296;BME280;2670;42.720;23.336;2023-04-28T00:45:26;-22608.47;;;5.72;77.15
5296;BME280;2670;42.720;23.336;2023-04-28T00:47:54;-22605.66;;;5.63;78.10
5296;BME280;2670;42.720;23.336;2023-04-28T00:50:21;-22612.94;;;5.88;77.01
5296;BME280;2670;42.720;23.336;2023-04-28T00:52:49;-22609.22;;;5.75;77.14
5296;BME280;2670;42.720;23.336;2023-04-28T00:55:16;-22608.03;;;5.71;76.91
5296;BME280;2670;42.720;23.336;2023-04-28T00:57:44;-22604.44;;;5.59;77.95
5296;BME280;2670;42.720;23.336;2023-04-28T01:00:12;-22604.44;;;5.59;78.08
5296;BME280;2670;42.720;23.336;2023-04-28T01:02:40;-22604.31;;;5.58;77.89
5296;BME280;2670;42.720;23.336;2023-04-28T01:05:08;-22602.81;;;5.53;77.45
5296;BME280;2670;42.720;23.336;2023-04-28T01:07:36;-22596.84;;;5.33;79.04
5296;BME280;2670;42.720;23.336;2023-04-28T01:10:03;-22600.28;;;5.44;78.92
5296;BME280;2670;42.720;23.336;2023-04-28T01:12:30;-22603.72;;;5.56;78.81
5296;BME280;2670;42.720;23.336;2023-04-28T01:14:57;-22600.00;;;5.43;78.92
5296;BME280;2670;42.720;23.336;2023-04-28T01:17:23;-22599.38;;;5.41;78.84
5296;BME280;2670;42.720;23.336;2023-04-28T01:19:50;-22599.09;;;5.40;79.37
5296;BME280;2670;42.720;23.336;2023-04-28T01:22:19;-22600.00;;;5.43;79.25
5296;BME280;2670;42.720;23.336;2023-04-28T01:24:47;-22603.56;;;5.56;78.75
5296;BME280;2670;42.720;23.336;2023-04-28T01:27:13;-22602.22;;;5.51;78.40
5296;BME280;2670;42.720;23.336;2023-04-28T01:29:40;-22598.03;;;5.37;79.31
5296;BME280;2670;42.720;23.336;2023-04-28T01:32:07;-22601.16;;;5.47;79.53
5296;BME280;2670;42.720;23.336;2023-04-28T01:34:34;-22599.38;;;5.41;79.07
5296;BME280;2670;42.720;23.336;2023-04-28T01:37:00;-22604.16;;;5.58;78.80
5296;BME280;2670;42.720;23.336;2023-04-28T01:39:27;-22597.91;;;5.36;79.79
5296;BME280;2670;42.720;23.336;2023-04-28T01:41:55;-22597.59;;;5.35;79.56
5296;BME280;2670;42.720;23.336;2023-04-28T01:44:22;-22598.34;;;5.38;80.03
5296;BME280;2670;42.720;23.336;2023-04-28T01:46:49;-22598.78;;;5.39;80.05
5296;BME280;2670;42.720;23.336;2023-04-28T01:49:15;-22596.84;;;5.33;79.91
5296;BME280;2670;42.720;23.336;2023-04-28T01:51:42;-22595.50;;;5.28;80.27
5296;BME280;2670;42.720;23.336;2023-04-28T01:54:09;-22600.28;;;5.44;78.38
5296;BME280;2670;42.720;23.336;2023-04-28T01:56:35;-22596.41;;;5.31;79.40
5296;BME280;2670;42.720;23.336;2023-04-28T01:59:03;-22591.66;;;5.15;79.50
5296;BME280;2670;42.720;23.336;2023-04-28T02:01:30;-22594.03;;;5.23;79.46
5296;BME280;2670;42.720;23.336;2023-04-28T02:03:57;-22596.41;;;5.31;78.67
5296;BME280;2670;42.720;23.336;2023-04-28T02:06:23;-22591.34;;;5.14;79.32
5296;BME280;2670;42.720;23.336;2023-04-28T02:08:51;-22593.28;;;5.20;79.75
5296;BME280;2670;42.720;23.336;2023-04-28T02:11:18;-22592.25;;;5.17;79.87
5296;BME280;2670;42.720;23.336;2023-04-28T02:13:45;-22590.75;;;5.12;80.19
5296;BME280;2670;42.720;23.336;2023-04-28T02:16:13;-22590.75;;;5.12;80.46
5296;BME280;2670;42.720;23.336;2023-04-28T02:18:40;-22587.47;;;5.00;80.84
5296;BME280;2670;42.720;23.336;2023-04-28T02:21:08;-22591.78;;;5.15;80.30
5296;BME280;2670;42.720;23.336;2023-04-28T02:23:35;-22590.91;;;5.12;80.31
5296;BME280;2670;42.720;23.336;2023-04-28T02:26:02;-22592.38;;;5.17;78.84
5296;BME280;2670;42.720;23.336;2023-04-28T02:28:28;-22593.56;;;5.21;78.86
5296;BME280;2670;42.720;23.336;2023-04-28T02:31:02;-22592.53;;;5.18;79.26
5296;BME280;2670;42.720;23.336;2023-04-28T02:33:30;-22585.09;;;4.92;80.08
5296;BME280;2670;42.720;23.336;2023-04-28T02:35:58;-22585.69;;;4.94;80.28
5296;BME280;2670;42.720;23.336;2023-04-28T02:38:24;-22581.50;;;4.80;81.02
5296;BME280;2670;42.720;23.336;2023-04-28T02:40:56;-22581.81;;;4.81;81.50
5296;BME280;2670;42.720;23.336;2023-04-28T02:43:24;-22582.09;;;4.82;81.80
5296;BME280;2670;42.720;23.336;2023-04-28T02:45:51;-22580.47;;;4.77;81.93
5296;BME280;2670;42.720;23.336;2023-04-28T02:48:18;-22584.78;;;4.91;81.33
5296;BME280;2670;42.720;23.336;2023-04-28T02:50:46;-22581.97;;;4.82;81.76
5296;BME280;2670;42.720;23.336;2023-04-28T02:53:13;-22583.28;;;4.86;81.89
5296;BME280;2670;42.720;23.336;2023-04-28T02:55:39;-22581.06;;;4.79;82.14
5296;BME280;2670;42.720;23.336;2023-04-28T02:58:06;-22579.72;;;4.74;82.04
5296;BME280;2670;42.720;23.336;2023-04-28T03:00:33;-22579.88;;;4.74;82.94
5296;BME280;2670;42.720;23.336;2023-04-28T03:03:00;-22580.00;;;4.75;83.08
5296;BME280;2670;42.720;23.336;2023-04-28T03:05:27;-22578.38;;;4.69;82.54
5296;BME280;2670;42.720;23.336;2023-04-28T03:07:55;-22574.06;;;4.55;82.96
5296;BME280;2670;42.720;23.336;2023-04-28T03:10:21;-22576.13;;;4.62;83.23
5296;BME280;2670;42.720;23.336;2023-04-28T03:12:48;-22574.81;;;4.57;83.86
5296;BME280;2670;42.720;23.336;2023-04-28T03:15:15;-22574.06;;;4.55;83.76
5296;BME280;2670;42.720;23.336;2023-04-28T03:17:42;-22574.94;;;4.58;83.96
5296;BME280;2670;42.720;23.336;2023-04-28T03:20:10;-22573.75;;;4.54;83.99
5296;BME280;2670;42.720;23.336;2023-04-28T03:22:37;-22573.75;;;4.54;83.78
5296;BME280;2670;42.720;23.336;2023-04-28T03:25:06;-22574.81;;;4.57;83.50
5296;BME280;2670;42.720;23.336;2023-04-28T03:27:32;-22576.88;;;4.64;82.63
5296;BME280;2670;42.720;23.336;2023-04-28T03:29:59;-22583.28;;;4.86;81.34
5296;BME280;2670;42.720;23.336;2023-04-28T03:32:26;-22575.53;;;4.60;81.83
5296;BME280;2670;42.720;23.336;2023-04-28T03:34:53;-22576.28;;;4.62;81.34
5296;BME280;2670;42.720;23.336;2023-04-28T03:37:19;-22577.03;;;4.65;81.77
5296;BME280;2670;42.720;23.336;2023-04-28T03:39:46;-22581.97;;;4.82;80.40
5296;BME280;2670;42.720;23.336;2023-04-28T03:42:14;-22581.22;;;4.79;80.80
5296;BME280;2670;42.720;23.336;2023-04-28T03:44:41;-22583.88;;;4.88;80.80
5296;BME280;2670;42.720;23.336;2023-04-28T03:47:07;-22580.00;;;4.75;81.22
5296;BME280;2670;42.720;23.336;2023-04-28T03:49:34;-22574.50;;;4.56;82.12
5296;BME280;2670;42.720;23.336;2023-04-28T03:52:01;-22574.94;;;4.58;82.34
5296;BME280;2670;42.720;23.336;2023-04-28T03:54:28;-22578.09;;;4.68;81.50
5296;BME280;2670;42.720;23.336;2023-04-28T03:56:55;-22576.13;;;4.62;82.08
5296;BME280;2670;42.720;23.336;2023-04-28T03:59:23;-22574.06;;;4.55;81.71
5296;BME280;2670;42.720;23.336;2023-04-28T04:01:51;-22574.06;;;4.55;82.01
5296;BME280;2670;42.720;23.336;2023-04-28T04:04:17;-22573.91;;;4.54;81.97
5296;BME280;2670;42.720;23.336;2023-04-28T04:06:44;-22577.78;;;4.67;81.48
5296;BME280;2670;42.720;23.336;2023-04-28T04:09:11;-22574.66;;;4.57;80.93
5296;BME280;2670;42.720;23.336;2023-04-28T04:11:38;-22578.69;;;4.70;80.50
5296;BME280;2670;42.720;23.336;2023-04-28T04:14:04;-22578.53;;;4.70;80.27
5296;BME280;2670;42.720;23.336;2023-04-28T04:16:33;-22578.09;;;4.68;79.98
5296;BME280;2670;42.720;23.336;2023-04-28T04:19:01;-22578.69;;;4.70;80.25
5296;BME280;2670;42.720;23.336;2023-04-28T04:21:27;-22578.53;;;4.70;79.75
5296;BME280;2670;42.720;23.336;2023-04-28T04:23:54;-22581.81;;;4.81;79.91
5296;BME280;2670;42.720;23.336;2023-04-28T04:26:21;-22579.72;;;4.74;79.12
5296;BME280;2670;42.720;23.336;2023-04-28T04:28:48;-22578.81;;;4.71;79.29
5296;BME280;2670;42.720;23.336;2023-04-28T04:31:14;-22576.88;;;4.64;78.78
5296;BME280;2670;42.720;23.336;2023-04-28T04:33:44;-22573.16;;;4.52;79.49
5296;BME280;2670;42.720;23.336;2023-04-28T04:36:11;-22577.63;;;4.67;79.02
5296;BME280;2670;42.720;23.336;2023-04-28T04:38:37;-22580.16;;;4.75;78.81
5296;BME280;2670;42.720;23.336;2023-04-28T04:41:04;-22584.63;;;4.91;78.07
5296;BME280;2670;42.720;23.336;2023-04-28T04:43:31;-22581.50;;;4.80;78.74
5296;BME280;2670;42.720;23.336;2023-04-28T04:45:58;-22581.81;;;4.81;78.73
5296;BME280;2670;42.720;23.336;2023-04-28T04:48:25;-22581.34;;;4.80;78.62
5296;BME280;2670;42.720;23.336;2023-04-28T04:50:53;-22586.72;;;4.98;77.86
5296;BME280;2670;42.720;23.336;2023-04-28T04:53:19;-22587.31;;;5.00;77.57
5296;BME280;2670;42.720;23.336;2023-04-28T04:55:46;-22585.53;;;4.94;77.17
5296;BME280;2670;42.720;23.336;2023-04-28T04:58:13;-22584.03;;;4.89;78.14
5296;BME280;2670;42.720;23.336;2023-04-28T05:00:39;-22587.16;;;4.99;78.02
5296;BME280;2670;42.720;23.336;2023-04-28T05:03:06;-22583.16;;;4.86;77.82
5296;BME280;2670;42.720;23.336;2023-04-28T05:05:33;-22588.06;;;5.03;77.86
5296;BME280;2670;42.720;23.336;2023-04-28T05:08:01;-22591.34;;;5.14;77.40
5296;BME280;2670;42.720;23.336;2023-04-28T05:10:30;-22590.31;;;5.10;77.97
5296;BME280;2670;42.720;23.336;2023-04-28T05:12:57;-22595.50;;;5.28;76.39
5296;BME280;2670;42.720;23.336;2023-04-28T05:15:23;-22597.00;;;5.33;76.99
5296;BME280;2670;42.720;23.336;2023-04-28T05:17:50;-22597.59;;;5.35;76.41
5296;BME280;2670;42.720;23.336;2023-04-28T05:20:17;-22600.00;;;5.43;76.10
5296;BME280;2670;42.720;23.336;2023-04-28T05:22:43;-22598.34;;;5.38;76.35
5296;BME280;2670;42.720;23.336;2023-04-28T05:25:12;-22604.31;;;5.58;76.24
5296;BME280;2670;42.720;23.336;2023-04-28T05:27:38;-22605.66;;;5.63;75.30
5296;BME280;2670;42.720;23.336;2023-04-28T05:30:06;-22605.34;;;5.62;75.56
5296;BME280;2670;42.720;23.336;2023-04-28T05:32:33;-22606.69;;;5.66;75.84
5296;BME280;2670;42.720;23.336;2023-04-28T05:35:00;-22610.84;;;5.81;75.85
5296;BME280;2670;42.720;23.336;2023-04-28T05:37:28;-22611.91;;;5.84;75.97
5296;BME280;2670;42.720;23.336;2023-04-28T05:39:54;-22616.66;;;6.01;74.49
5296;BME280;2670;42.720;23.336;2023-04-28T05:42:22;-22620.38;;;6.13;74.54
5296;BME280;2670;42.720;23.336;2023-04-28T05:44:49;-22622.19;;;6.19;74.07
5296;BME280;2670;42.720;23.336;2023-04-28T05:47:16;-22622.31;;;6.20;73.73
5296;BME280;2670;42.720;23.336;2023-04-28T05:49:42;-22620.53;;;6.14;73.70
5296;BME280;2670;42.720;23.336;2023-04-28T05:52:09;-22620.84;;;6.15;73.20
5296;BME280;2670;42.720;23.336;2023-04-28T05:54:36;-22626.78;;;6.35;71.92
5296;BME280;2670;42.720;23.336;2023-04-28T05:57:02;-22629.03;;;6.43;71.77
5296;BME280;2670;42.720;23.336;2023-04-28T05:59:31;-22629.63;;;6.45;71.96
5296;BME280;2670;42.720;23.336;2023-04-28T06:01:57;-22630.50;;;6.48;72.85
5296;BME280;2670;42.720;23.336;2023-04-28T06:04:24;-22633.50;;;6.58;72.93
5296;BME280;2670;42.720;23.336;2023-04-28T06:06:51;-22637.22;;;6.71;71.34
5296;BME280;2670;42.720;23.336;2023-04-28T06:09:18;-22637.81;;;6.73;72.01
5296;BME280;2670;42.720;23.336;2023-04-28T06:11:44;-22637.66;;;6.72;73.05
5296;BME280;2670;42.720;23.336;2023-04-28T06:14:11;-22641.66;;;6.86;70.34
5296;BME280;2670;42.720;23.336;2023-04-28T06:16:39;-22645.97;;;7.01;69.64
5296;BME280;2670;42.720;23.336;2023-04-28T06:19:06;-22645.25;;;6.98;71.24
5296;BME280;2670;42.720;23.336;2023-04-28T06:21:33;-22645.53;;;6.99;70.57
5296;BME280;2670;42.720;23.336;2023-04-28T06:24:00;-22648.50;;;7.10;70.95
5296;BME280;2670;42.720;23.336;2023-04-28T06:26:27;-22650.44;;;7.16;69.33
5296;BME280;2670;42.720;23.336;2023-04-28T06:28:53;-22654.00;;;7.29;70.24
5296;BME280;2670;42.720;23.336;2023-04-28T06:31:20;-22654.75;;;7.31;69.50
5296;BME280;2670;42.720;23.336;2023-04-28T06:33:48;-22656.97;;;7.39;70.16
5296;BME280;2670;42.720;23.336;2023-04-28T06:36:15;-22658.16;;;7.43;69.45
5296;BME280;2670;42.720;23.336;2023-04-28T06:38:42;-22659.06;;;7.46;69.46
5296;BME280;2670;42.720;23.336;2023-04-28T06:41:09;-22658.78;;;7.45;69.57
5296;BME280;2670;42.720;23.336;2023-04-28T06:43:36;-22662.63;;;7.58;70.15
5296;BME280;2670;42.720;23.336;2023-04-28T06:46:03;-22663.53;;;7.61;67.75
5296;BME280;2670;42.720;23.336;2023-04-28T06:48:30;-22664.25;;;7.64;68.93
5296;BME280;2670;42.720;23.336;2023-04-28T06:50:58;-22665.75;;;7.69;68.53
5296;BME280;2670;42.720;23.336;2023-04-28T06:53:24;-22668.13;;;7.77;67.60
5296;BME280;2670;42.720;23.336;2023-04-28T06:55:52;-22667.69;;;7.76;68.57
5296;BME280;2670;42.720;23.336;2023-04-28T06:58:19;-22670.34;;;7.85;69.71
5296;BME280;2670;42.720;23.336;2023-04-28T07:00:46;-22669.47;;;7.82;69.69
5296;BME280;2670;42.720;23.336;2023-04-28T07:03:13;-22674.22;;;7.98;70.13
5296;BME280;2670;42.720;23.336;2023-04-28T07:05:40;-22675.13;;;8.01;70.37
5296;BME280;2670;42.720;23.336;2023-04-28T07:08:08;-22680.75;;;8.20;68.00
5296;BME280;2670;42.720;23.336;2023-04-28T07:10:35;-22679.72;;;8.17;68.85
5296;BME280;2670;42.720;23.336;2023-04-28T07:13:02;-22687.75;;;8.44;68.57
5296;BME280;2670;42.720;23.336;2023-04-28T07:15:29;-22691.47;;;8.57;67.89
5296;BME280;2670;42.720;23.336;2023-04-28T07:17:56;-22692.78;;;8.62;67.32
5296;BME280;2670;42.720;23.336;2023-04-28T07:20:23;-22694.13;;;8.66;67.36
5296;BME280;2670;42.720;23.336;2023-04-28T07:22:50;-22701.41;;;8.91;66.28
5296;BME280;2670;42.720;23.336;2023-04-28T07:25:19;-22705.56;;;9.06;60.65
5296;BME280;2670;42.720;23.336;2023-04-28T07:27:46;-22703.91;;;9.00;61.17
5296;BME280;2670;42.720;23.336;2023-04-28T07:30:13;-22704.38;;;9.02;62.08
5296;BME280;2670;42.720;23.336;2023-04-28T07:32:39;-22702.44;;;8.95;63.84
5296;BME280;2670;42.720;23.336;2023-04-28T07:35:07;-22706.16;;;9.08;63.53
5296;BME280;2670;42.720;23.336;2023-04-28T07:37:34;-22708.97;;;9.17;63.72
5296;BME280;2670;42.720;23.336;2023-04-28T07:40:02;-22714.31;;;9.36;60.38
5296;BME280;2670;42.720;23.336;2023-04-28T07:42:30;-22710.31;;;9.22;60.49
5296;BME280;2670;42.720;23.336;2023-04-28T07:44:57;-22711.19;;;9.25;61.13
5296;BME280;2670;42.720;23.336;2023-04-28T07:47:24;-22714.16;;;9.35;60.39
5296;BME280;2670;42.720;23.336;2023-04-28T07:49:51;-22712.81;;;9.31;60.02
5296;BME280;2670;42.720;23.336;2023-04-28T07:52:17;-22718.75;;;9.51;59.33
5296;BME280;2670;42.720;23.336;2023-04-28T07:54:44;-22719.78;;;9.55;58.68
5296;BME280;2670;42.720;23.336;2023-04-28T07:57:11;-22717.41;;;9.46;60.35
5296;BME280;2670;42.720;23.336;2023-04-28T07:59:39;-22726.91;;;9.79;59.83
5296;BME280;2670;42.720;23.336;2023-04-28T08:02:06;-22724.84;;;9.72;59.39
5296;BME280;2670;42.720;23.336;2023-04-28T08:04:33;-22724.25;;;9.70;58.17
5296;BME280;2670;42.720;23.336;2023-04-28T08:07:02;-22726.03;;;9.76;59.61
5296;BME280;2670;42.720;23.336;2023-04-28T08:09:28;-22732.84;;;10.00;59.36
5296;BME280;2670;42.720;23.336;2023-04-28T08:11:56;-22733.44;;;10.02;58.94
5296;BME280;2670;42.720;23.336;2023-04-28T08:14:23;-22737.28;;;10.15;59.00
5296;BME280;2670;42.720;23.336;2023-04-28T08:16:51;-22739.81;;;10.23;60.18
5296;BME280;2670;42.720;23.336;2023-04-28T08:19:19;-22740.25;;;10.25;58.58
5296;BME280;2670;42.720;23.336;2023-04-28T08:21:46;-22744.25;;;10.39;56.49
5296;BME280;2670;42.720;23.336;2023-04-28T08:24:14;-22747.50;;;10.50;57.73
5296;BME280;2670;42.720;23.336;2023-04-28T08:26:41;-22751.50;;;10.64;56.80
5296;BME280;2670;42.720;23.336;2023-04-28T08:29:08;-22752.25;;;10.66;59.29
5296;BME280;2670;42.720;23.336;2023-04-28T08:31:34;-22756.25;;;10.80;57.01
5296;BME280;2670;42.720;23.336;2023-04-28T08:34:03;-22757.00;;;10.83;57.91
5296;BME280;2670;42.720;23.336;2023-04-28T08:36:30;-22757.28;;;10.84;56.14
5296;BME280;2670;42.720;23.336;2023-04-28T08:38:58;-22754.63;;;10.75;54.81
5296;BME280;2670;42.720;23.336;2023-04-28T08:41:28;-22753.44;;;10.70;55.66
5296;BME280;2670;42.720;23.336;2023-04-28T08:43:58;-22750.47;;;10.60;56.14
5296;BME280;2670;42.720;23.336;2023-04-28T08:46:26;-22754.03;;;10.72;56.72
5296;BME280;2670;42.720;23.336;2023-04-28T08:48:59;-22759.34;;;10.91;56.77
5296;BME280;2670;42.720;23.336;2023-04-28T08:51:32;-22760.25;;;10.94;55.62
5296;BME280;2670;42.720;23.336;2023-04-28T08:54:02;-22762.19;;;11.01;55.81
5296;BME280;2670;42.720;23.336;2023-04-28T08:56:31;-22764.69;;;11.09;54.41
5296;BME280;2670;42.720;23.336;2023-04-28T08:59:01;-22770.03;;;11.28;54.91
5296;BME280;2670;42.720;23.336;2023-04-28T09:01:30;-22774.16;;;11.42;54.13
5296;BME280;2670;42.720;23.336;2023-04-28T09:03:59;-22777.72;;;11.54;53.21
5296;BME280;2670;42.720;23.336;2023-04-28T09:06:31;-22772.25;;;11.35;53.00
5296;BME280;2670;42.720;23.336;2023-04-28T09:09:19;-22774.31;;;11.42;53.18
5296;BME280;2670;42.720;23.336;2023-04-28T09:11:50;-22780.38;;;11.63;53.60
5296;BME280;2670;42.720;23.336;2023-04-28T09:14:20;-22781.13;;;11.66;53.51
5296;BME280;2670;42.720;23.336;2023-04-28T09:16:47;-22781.56;;;11.67;53.49
5296;BME280;2670;42.720;23.336;2023-04-28T09:19:14;-22782.44;;;11.70;52.15
5296;BME280;2670;42.720;23.336;2023-04-28T09:21:53;-22784.53;;;11.78;52.52
5296;BME280;2670;42.720;23.336;2023-04-28T09:24:28;-22787.50;;;11.88;51.16
5296;BME280;2670;42.720;23.336;2023-04-28T09:26:55;-22787.78;;;11.89;51.75
5296;BME280;2670;42.720;23.336;2023-04-28T09:29:22;-22791.63;;;12.02;51.85
5296;BME280;2670;42.720;23.336;2023-04-28T09:31:48;-22793.41;;;12.08;50.34
5296;BME280;2670;42.720;23.336;2023-04-28T09:34:15;-22790.00;;;11.96;49.91
5296;BME280;2670;42.720;23.336;2023-04-28T09:36:42;-22786.00;;;11.83;53.47
5296;BME280;2670;42.720;23.336;2023-04-28T09:39:10;-22787.34;;;11.87;49.68
5296;BME280;2670;42.720;23.336;2023-04-28T09:41:38;-22786.31;;;11.84;51.07
5296;BME280;2670;42.720;23.336;2023-04-28T09:44:13;-22788.97;;;11.93;50.64
5296;BME280;2670;42.720;23.336;2023-04-28T09:46:40;-22790.59;;;11.99;50.93
5296;BME280;2670;42.720;23.336;2023-04-28T09:49:08;-22794.00;;;12.10;52.49
5296;BME280;2670;42.720;23.336;2023-04-28T09:51:35;-22799.59;;;12.30;51.37
5296;BME280;2670;42.720;23.336;2023-04-28T09:54:02;-22802.84;;;12.41;49.57
5296;BME280;2670;42.720;23.336;2023-04-28T09:56:31;-22809.38;;;12.63;51.48
5296;BME280;2670;42.720;23.336;2023-04-28T09:58:59;-22814.38;;;12.81;50.97
5296;BME280;2670;42.720;23.336;2023-04-28T10:01:31;-22815.13;;;12.83;50.62
5296;BME280;2670;42.720;23.336;2023-04-28T10:03:59;-22822.06;;;13.07;49.34
5296;BME280;2670;42.720;23.336;2023-04-28T10:06:27;-22819.69;;;12.99;47.79
5296;BME280;2670;42.720;23.336;2023-04-28T10:08:58;-22816.47;;;12.88;47.45
5296;BME280;2670;42.720;23.336;2023-04-28T10:11:25;-22821.34;;;13.05;46.34
5296;BME280;2670;42.720;23.336;2023-04-28T10:13:54;-22824.72;;;13.16;41.89
5296;BME280;2670;42.720;23.336;2023-04-28T10:16:21;-22820.28;;;13.01;41.62
5296;BME280;2670;42.720;23.336;2023-04-28T10:18:48;-22820.28;;;13.01;40.26
5296;BME280;2670;42.720;23.336;2023-04-28T10:21:17;-22824.72;;;13.16;37.85
5296;BME280;2670;42.720;23.336;2023-04-28T10:24:09;-22826.19;;;13.21;39.89
5296;BME280;2670;42.720;23.336;2023-04-28T10:27:10;-22831.38;;;13.39;39.46
5296;BME280;2670;42.720;23.336;2023-04-28T10:29:39;-22826.06;;;13.21;39.68
5296;BME280;2670;42.720;23.336;2023-04-28T10:32:17;-22828.41;;;13.29;40.21
5296;BME280;2670;42.720;23.336;2023-04-28T10:34:44;-22829.91;;;13.34;38.07
5296;BME280;2670;42.720;23.336;2023-04-28T10:37:11;-22826.78;;;13.24;39.15
5296;BME280;2670;42.720;23.336;2023-04-28T10:39:39;-22829.59;;;13.33;38.88
5296;BME280;2670;42.720;23.336;2023-04-28T10:45:13;-22833.16;;;13.45;37.24
5296;BME280;2670;42.720;23.336;2023-04-28T10:48:00;-22840.38;;;13.70;37.14
5296;BME280;2670;42.720;23.336;2023-04-28T10:50:30;-22845.69;;;13.89;35.32
5296;BME280;2670;42.720;23.336;2023-04-28T10:52:58;-22849.22;;;14.01;36.24
5296;BME280;2670;42.720;23.336;2023-04-28T10:55:32;-22853.38;;;14.15;34.22
5296;BME280;2670;42.720;23.336;2023-04-28T10:58:30;-22851.44;;;14.09;33.97
5296;BME280;2670;42.720;23.336;2023-04-28T11:01:27;-22847.03;;;13.93;35.51
5296;BME280;2670;42.720;23.336;2023-04-28T11:03:56;-22843.91;;;13.83;34.43
5296;BME280;2670;42.720;23.336;2023-04-28T11:06:29;-22843.91;;;13.83;35.92
5296;BME280;2670;42.720;23.336;2023-04-28T11:08:58;-22854.09;;;14.18;35.01
5296;BME280;2670;42.720;23.336;2023-04-28T11:11:27;-22857.19;;;14.29;34.19
5296;BME280;2670;42.720;23.336;2023-04-28T11:13:54;-22858.53;;;14.33;35.19
5296;BME280;2670;42.720;23.336;2023-04-28T11:16:24;-22861.19;;;14.42;36.67
5296;BME280;2670;42.720;23.336;2023-04-28T11:18:57;-22854.25;;;14.18;37.49
5296;BME280;2670;42.720;23.336;2023-04-28T11:21:25;-22862.34;;;14.47;38.46
5296;BME280;2670;42.720;23.336;2023-04-28T11:23:54;-22868.84;;;14.69;37.71
5296;BME280;2670;42.720;23.336;2023-04-28T11:26:21;-22866.50;;;14.61;39.76
5296;BME280;2670;42.720;23.336;2023-04-28T11:28:50;-22870.78;;;14.76;39.30
5296;BME280;2670;42.720;23.336;2023-04-28T11:31:21;-22877.53;;;14.99;39.66
5296;BME280;2670;42.720;23.336;2023-04-28T11:34:01;-22877.84;;;15.00;36.67
5296;BME280;2670;42.720;23.336;2023-04-28T11:36:31;-22873.13;;;14.84;37.05
5296;BME280;2670;42.720;23.336;2023-04-28T11:39:00;-22870.91;;;14.76;37.41
5296;BME280;2670;42.720;23.336;2023-04-28T11:41:29;-22872.97;;;14.83;36.95
5296;BME280;2670;42.720;23.336;2023-04-28T11:43:56;-22866.78;;;14.62;37.31
5296;BME280;2670;42.720;23.336;2023-04-28T11:46:24;-22867.53;;;14.64;38.76
5296;BME280;2670;42.720;23.336;2023-04-28T11:49:04;-22873.13;;;14.84;38.18
5296;BME280;2670;42.720;23.336;2023-04-28T11:51:36;-22875.03;;;14.90;38.25
5296;BME280;2670;42.720;23.336;2023-04-28T11:54:04;-22876.97;;;14.97;37.75
5296;BME280;2670;42.720;23.336;2023-04-28T11:56:36;-22878.00;;;15.01;37.95
5296;BME280;2670;42.720;23.336;2023-04-28T11:59:05;-22876.81;;;14.97;37.85
5296;BME280;2670;42.720;23.336;2023-04-28T12:01:34;-22878.44;;;15.02;37.81
5296;BME280;2670;42.720;23.336;2023-04-28T12:04:11;-22872.97;;;14.83;37.56
5296;BME280;2670;42.720;23.336;2023-04-28T12:06:38;-22873.56;;;14.85;38.03
5296;BME280;2670;42.720;23.336;2023-04-28T12:09:15;-22872.38;;;14.81;38.86
5296;BME280;2670;42.720;23.336;2023-04-28T12:11:57;-22874.16;;;14.87;39.09
5296;BME280;2670;42.720;23.336;2023-04-28T12:14:24;-22879.47;;;15.06;37.81
5296;BME280;2670;42.720;23.336;2023-04-28T12:16:51;-22882.84;;;15.17;38.32
5296;BME280;2670;42.720;23.336;2023-04-28T12:19:20;-22884.19;;;15.22;36.81
5296;BME280;2670;42.720;23.336;2023-04-28T12:22:00;-22884.19;;;15.22;37.15
5296;BME280;2670;42.720;23.336;2023-04-28T12:24:28;-22884.03;;;15.22;36.35
5296;BME280;2670;42.720;23.336;2023-04-28T12:27:12;-22881.66;;;15.13;39.49
5296;BME280;2670;42.720;23.336;2023-04-28T12:29:41;-22885.06;;;15.25;37.67
5296;BME280;2670;42.720;23.336;2023-04-28T12:32:10;-22884.63;;;15.24;38.52
5296;BME280;2670;42.720;23.336;2023-04-28T12:34:42;-22890.81;;;15.45;37.30
5296;BME280;2670;42.720;23.336;2023-04-28T12:37:10;-22889.03;;;15.39;38.56
5296;BME280;2670;42.720;23.336;2023-04-28T12:39:39;-22884.75;;;15.24;36.96
5296;BME280;2670;42.720;23.336;2023-04-28T12:42:07;-22883.44;;;15.19;37.86
5296;BME280;2670;42.720;23.336;2023-04-28T12:44:36;-22889.19;;;15.39;37.29
5296;BME280;2670;42.720;23.336;2023-04-28T12:47:05;-22892.13;;;15.50;36.90
5296;BME280;2670;42.720;23.336;2023-04-28T12:49:32;-22886.69;;;15.31;38.97
5296;BME280;2670;42.720;23.336;2023-04-28T12:52:01;-22889.19;;;15.39;37.24
5296;BME280;2670;42.720;23.336;2023-04-28T12:54:29;-22891.25;;;15.47;38.13
5296;BME280;2670;42.720;23.336;2023-04-28T12:56:59;-22888.28;;;15.36;37.23
5296;BME280;2670;42.720;23.336;2023-04-28T12:59:29;-22885.94;;;15.28;37.84
5296;BME280;2670;42.720;23.336;2023-04-28T13:01:57;-22890.81;;;15.45;37.11
5296;BME280;2670;42.720;23.336;2023-04-28T13:04:23;-22893.31;;;15.54;36.47
5296;BME280;2670;42.720;23.336;2023-04-28T13:06:55;-22885.66;;;15.27;36.79
5296;BME280;2670;42.720;23.336;2023-04-28T13:09:24;-22888.00;;;15.35;37.56
5296;BME280;2670;42.720;23.336;2023-04-28T13:11:52;-22891.25;;;15.47;36.30
5296;BME280;2670;42.720;23.336;2023-04-28T13:14:20;-22895.50;;;15.61;37.39
5296;BME280;2670;42.720;23.336;2023-04-28T13:16:47;-22899.50;;;15.75;37.25